Terminal Aerodrome Forecast
Issued by NWS

Current Version | Previous Version | Text Only | Print | Product List | Glossary On
Versions: 1 2 3 4 5 6 7 8 9 10 11 12 13 14 15 16 17 18
000
FTUS44 KLUB 231100
TAFCDS
TAF
KCDS 231127Z 2312/2412 16013KT P6SM SCT150 BKN200
     FM231500 18018G26KT P6SM SCT080 BKN200 PROB30 2321/2401 3SM
      -TSRA BKN050CB=

USA.gov is the U.S. government's official web portal to all federal, state and local government web resources and services.